sensor_id;sensor_type;location;lat;lon;timestamp;P1;durP1;ratioP1;P2;durP2;ratioP2
66272;SDS011;58450;52.150;4.466;2023-07-22T00:01:19;9.63;;;5.57;;
66272;SDS011;58450;52.150;4.466;2023-07-22T00:03:48;8.55;;;5.78;;
66272;SDS011;58450;52.150;4.466;2023-07-22T00:06:15;8.68;;;5.63;;
66272;SDS011;58450;52.150;4.466;2023-07-22T00:08:43;8.95;;;5.60;;
66272;SDS011;58450;52.150;4.466;2023-07-22T00:11:10;9.88;;;6.15;;
66272;SDS011;58450;52.150;4.466;2023-07-22T00:13:38;9.23;;;5.45;;
66272;SDS011;58450;52.150;4.466;2023-07-22T00:16:05;9.20;;;5.50;;
66272;SDS011;58450;52.150;4.466;2023-07-22T00:18:33;9.25;;;6.03;;
66272;SDS011;58450;52.150;4.466;2023-07-22T00:21:03;10.50;;;5.80;;
66272;SDS011;58450;52.150;4.466;2023-07-22T00:23:32;9.82;;;5.88;;
66272;SDS011;58450;52.150;4.466;2023-07-22T00:26:00;8.82;;;5.60;;
66272;SDS011;58450;52.150;4.466;2023-07-22T00:28:28;8.45;;;5.07;;
66272;SDS011;58450;52.150;4.466;2023-07-22T00:30:56;9.63;;;5.43;;
66272;SDS011;58450;52.150;4.466;2023-07-22T00:33:24;9.30;;;5.65;;
66272;SDS011;58450;52.150;4.466;2023-07-22T00:35:52;9.38;;;5.97;;
66272;SDS011;58450;52.150;4.466;2023-07-22T00:38:22;9.93;;;5.55;;
66272;SDS011;58450;52.150;4.466;2023-07-22T00:40:50;10.30;;;5.60;;
66272;SDS011;58450;52.150;4.466;2023-07-22T00:43:17;9.25;;;5.55;;
66272;SDS011;58450;52.150;4.466;2023-07-22T00:45:45;8.80;;;5.22;;
66272;SDS011;58450;52.150;4.466;2023-07-22T00:48:12;10.05;;;6.25;;
66272;SDS011;58450;52.150;4.466;2023-07-22T00:50:42;9.20;;;5.57;;
66272;SDS011;58450;52.150;4.466;2023-07-22T00:53:10;10.35;;;5.85;;
66272;SDS011;58450;52.150;4.466;2023-07-22T00:55:39;9.63;;;5.80;;
66272;SDS011;58450;52.150;4.466;2023-07-22T00:58:07;10.05;;;5.45;;
66272;SDS011;58450;52.150;4.466;2023-07-22T01:00:35;9.15;;;5.55;;
66272;SDS011;58450;52.150;4.466;2023-07-22T01:03:02;9.65;;;5.80;;
66272;SDS011;58450;52.150;4.466;2023-07-22T01:05:32;9.82;;;6.05;;
66272;SDS011;58450;52.150;4.466;2023-07-22T01:08:02;10.75;;;6.07;;
66272;SDS011;58450;52.150;4.466;2023-07-22T01:10:31;10.93;;;6.13;;
66272;SDS011;58450;52.150;4.466;2023-07-22T01:13:00;9.63;;;5.95;;
66272;SDS011;58450;52.150;4.466;2023-07-22T01:15:27;9.20;;;5.80;;
66272;SDS011;58450;52.150;4.466;2023-07-22T01:17:55;10.93;;;6.20;;
66272;SDS011;58450;52.150;4.466;2023-07-22T01:20:27;11.13;;;6.78;;
66272;SDS011;58450;52.150;4.466;2023-07-22T01:22:57;10.15;;;6.28;;
66272;SDS011;58450;52.150;4.466;2023-07-22T01:25:25;11.40;;;6.53;;
66272;SDS011;58450;52.150;4.466;2023-07-22T01:27:53;10.40;;;6.15;;
66272;SDS011;58450;52.150;4.466;2023-07-22T01:30:21;10.43;;;6.15;;
66272;SDS011;58450;52.150;4.466;2023-07-22T01:32:49;11.07;;;6.68;;
66272;SDS011;58450;52.150;4.466;2023-07-22T01:35:17;10.15;;;6.50;;
66272;SDS011;58450;52.150;4.466;2023-07-22T01:37:45;9.88;;;5.93;;
66272;SDS011;58450;52.150;4.466;2023-07-22T01:40:14;9.13;;;5.82;;
66272;SDS011;58450;52.150;4.466;2023-07-22T01:42:42;10.77;;;6.70;;
66272;SDS011;58450;52.150;4.466;2023-07-22T01:45:09;11.45;;;6.53;;
66272;SDS011;58450;52.150;4.466;2023-07-22T01:47:37;9.80;;;6.70;;
66272;SDS011;58450;52.150;4.466;2023-07-22T01:50:06;11.18;;;6.78;;
66272;SDS011;58450;52.150;4.466;2023-07-22T01:52:35;9.70;;;5.85;;
66272;SDS011;58450;52.150;4.466;2023-07-22T01:55:03;10.27;;;6.47;;
66272;SDS011;58450;52.150;4.466;2023-07-22T01:57:33;12.02;;;7.18;;
66272;SDS011;58450;52.150;4.466;2023-07-22T02:00:01;10.77;;;6.40;;
66272;SDS011;58450;52.150;4.466;2023-07-22T02:02:31;10.00;;;5.97;;
66272;SDS011;58450;52.150;4.466;2023-07-22T02:04:58;9.45;;;5.68;;
66272;SDS011;58450;52.150;4.466;2023-07-22T02:07:26;9.93;;;6.13;;
66272;SDS011;58450;52.150;4.466;2023-07-22T02:09:54;8.98;;;5.70;;
66272;SDS011;58450;52.150;4.466;2023-07-22T02:12:22;10.63;;;5.60;;
66272;SDS011;58450;52.150;4.466;2023-07-22T02:14:51;10.45;;;5.85;;
66272;SDS011;58450;52.150;4.466;2023-07-22T02:17:19;9.68;;;5.90;;
66272;SDS011;58450;52.150;4.466;2023-07-22T02:19:47;9.57;;;5.70;;
66272;SDS011;58450;52.150;4.466;2023-07-22T02:22:14;9.90;;;6.18;;
66272;SDS011;58450;52.150;4.466;2023-07-22T02:24:42;9.52;;;6.25;;
66272;SDS011;58450;52.150;4.466;2023-07-22T02:27:10;10.55;;;6.10;;
66272;SDS011;58450;52.150;4.466;2023-07-22T02:29:38;11.57;;;6.13;;
66272;SDS011;58450;52.150;4.466;2023-07-22T02:32:07;9.73;;;5.78;;
66272;SDS011;58450;52.150;4.466;2023-07-22T02:34:35;10.20;;;6.07;;
66272;SDS011;58450;52.150;4.466;2023-07-22T02:37:03;8.88;;;5.47;;
66272;SDS011;58450;52.150;4.466;2023-07-22T02:39:32;9.88;;;5.30;;
66272;SDS011;58450;52.150;4.466;2023-07-22T02:42:00;8.50;;;5.20;;
66272;SDS011;58450;52.150;4.466;2023-07-22T02:44:28;9.02;;;5.30;;
66272;SDS011;58450;52.150;4.466;2023-07-22T02:46:55;8.73;;;5.38;;
66272;SDS011;58450;52.150;4.466;2023-07-22T02:49:24;9.20;;;5.68;;
66272;SDS011;58450;52.150;4.466;2023-07-22T02:51:52;9.98;;;5.97;;
66272;SDS011;58450;52.150;4.466;2023-07-22T02:54:19;9.07;;;4.93;;
66272;SDS011;58450;52.150;4.466;2023-07-22T02:56:47;8.23;;;5.20;;
66272;SDS011;58450;52.150;4.466;2023-07-22T02:59:14;9.38;;;5.60;;
66272;SDS011;58450;52.150;4.466;2023-07-22T03:01:42;8.95;;;5.05;;
66272;SDS011;58450;52.150;4.466;2023-07-22T03:04:10;8.95;;;5.20;;
66272;SDS011;58450;52.150;4.466;2023-07-22T03:06:39;8.80;;;5.15;;
66272;SDS011;58450;52.150;4.466;2023-07-22T03:09:08;9.65;;;5.07;;
66272;SDS011;58450;52.150;4.466;2023-07-22T03:11:37;7.35;;;4.90;;
66272;SDS011;58450;52.150;4.466;2023-07-22T03:14:04;8.48;;;5.28;;
66272;SDS011;58450;52.150;4.466;2023-07-22T03:16:32;9.57;;;5.45;;
66272;SDS011;58450;52.150;4.466;2023-07-22T03:18:59;8.30;;;5.00;;
66272;SDS011;58450;52.150;4.466;2023-07-22T03:21:27;7.10;;;4.38;;
66272;SDS011;58450;52.150;4.466;2023-07-22T03:23:56;9.05;;;4.60;;
66272;SDS011;58450;52.150;4.466;2023-07-22T03:26:24;7.57;;;4.30;;
66272;SDS011;58450;52.150;4.466;2023-07-22T03:28:51;7.47;;;4.45;;
66272;SDS011;58450;52.150;4.466;2023-07-22T03:31:20;8.20;;;4.60;;
66272;SDS011;58450;52.150;4.466;2023-07-22T03:33:47;8.48;;;4.53;;
66272;SDS011;58450;52.150;4.466;2023-07-22T03:36:15;8.60;;;4.90;;
66272;SDS011;58450;52.150;4.466;2023-07-22T03:38:43;6.65;;;4.30;;
66272;SDS011;58450;52.150;4.466;2023-07-22T03:41:12;8.77;;;5.20;;
66272;SDS011;58450;52.150;4.466;2023-07-22T03:43:39;7.32;;;4.43;;
66272;SDS011;58450;52.150;4.466;2023-07-22T03:46:07;7.35;;;4.38;;
66272;SDS011;58450;52.150;4.466;2023-07-22T03:48:35;9.60;;;4.95;;
66272;SDS011;58450;52.150;4.466;2023-07-22T03:51:02;7.00;;;4.15;;
66272;SDS011;58450;52.150;4.466;2023-07-22T03:53:30;7.15;;;4.38;;
66272;SDS011;58450;52.150;4.466;2023-07-22T03:55:58;6.50;;;4.10;;
66272;SDS011;58450;52.150;4.466;2023-07-22T03:58:27;8.63;;;4.75;;
66272;SDS011;58450;52.150;4.466;2023-07-22T04:00:54;7.85;;;4.53;;
66272;SDS011;58450;52.150;4.466;2023-07-22T04:03:22;8.05;;;4.70;;
66272;SDS011;58450;52.150;4.466;2023-07-22T04:05:55;7.65;;;4.78;;
66272;SDS011;58450;52.150;4.466;2023-07-22T04:10:51;8.10;;;4.60;;
66272;SDS011;58450;52.150;4.466;2023-07-22T04:13:19;10.25;;;5.15;;
66272;SDS011;58450;52.150;4.466;2023-07-22T04:15:48;9.65;;;4.47;;
66272;SDS011;58450;52.150;4.466;2023-07-22T04:18:16;7.55;;;4.72;;
66272;SDS011;58450;52.150;4.466;2023-07-22T04:20:45;8.73;;;4.50;;
66272;SDS011;58450;52.150;4.466;2023-07-22T04:23:14;7.53;;;4.43;;
66272;SDS011;58450;52.150;4.466;2023-07-22T04:25:42;7.32;;;4.60;;
66272;SDS011;58450;52.150;4.466;2023-07-22T04:28:11;10.55;;;4.78;;
66272;SDS011;58450;52.150;4.466;2023-07-22T04:30:38;8.52;;;4.60;;
66272;SDS011;58450;52.150;4.466;2023-07-22T04:33:08;7.90;;;4.28;;
66272;SDS011;58450;52.150;4.466;2023-07-22T04:35:37;8.38;;;4.60;;
66272;SDS011;58450;52.150;4.466;2023-07-22T04:38:07;7.03;;;4.60;;
66272;SDS011;58450;52.150;4.466;2023-07-22T04:40:35;6.80;;;4.05;;
66272;SDS011;58450;52.150;4.466;2023-07-22T04:43:03;6.82;;;4.28;;
66272;SDS011;58450;52.150;4.466;2023-07-22T04:45:30;8.38;;;4.60;;
66272;SDS011;58450;52.150;4.466;2023-07-22T04:47:58;7.30;;;4.57;;
66272;SDS011;58450;52.150;4.466;2023-07-22T04:50:27;6.35;;;4.05;;
66272;SDS011;58450;52.150;4.466;2023-07-22T04:52:54;7.65;;;4.15;;
66272;SDS011;58450;52.150;4.466;2023-07-22T04:55:22;6.57;;;3.55;;
66272;SDS011;58450;52.150;4.466;2023-07-22T04:57:49;6.68;;;4.10;;
66272;SDS011;58450;52.150;4.466;2023-07-22T05:00:17;6.82;;;4.13;;
66272;SDS011;58450;52.150;4.466;2023-07-22T05:02:45;7.78;;;4.10;;
66272;SDS011;58450;52.150;4.466;2023-07-22T05:05:14;9.00;;;4.13;;
66272;SDS011;58450;52.150;4.466;2023-07-22T05:07:43;7.60;;;4.30;;
66272;SDS011;58450;52.150;4.466;2023-07-22T05:10:11;8.00;;;4.60;;
66272;SDS011;58450;52.150;4.466;2023-07-22T05:12:39;8.90;;;4.70;;
66272;SDS011;58450;52.150;4.466;2023-07-22T05:15:09;7.80;;;4.35;;
66272;SDS011;58450;52.150;4.466;2023-07-22T05:17:38;8.77;;;4.60;;
66272;SDS011;58450;52.150;4.466;2023-07-22T05:20:05;7.07;;;4.20;;
66272;SDS011;58450;52.150;4.466;2023-07-22T05:22:36;8.93;;;4.80;;
66272;SDS011;58450;52.150;4.466;2023-07-22T05:25:06;10.45;;;5.30;;
66272;SDS011;58450;52.150;4.466;2023-07-22T05:27:35;10.57;;;5.05;;
66272;SDS011;58450;52.150;4.466;2023-07-22T05:30:03;9.68;;;4.97;;
66272;SDS011;58450;52.150;4.466;2023-07-22T05:32:32;11.05;;;6.05;;
66272;SDS011;58450;52.150;4.466;2023-07-22T05:35:00;11.20;;;5.82;;
66272;SDS011;58450;52.150;4.466;2023-07-22T05:37:30;10.25;;;5.82;;
66272;SDS011;58450;52.150;4.466;2023-07-22T05:39:59;13.90;;;7.55;;
66272;SDS011;58450;52.150;4.466;2023-07-22T05:42:28;15.18;;;8.30;;
66272;SDS011;58450;52.150;4.466;2023-07-22T05:44:57;21.17;;;9.90;;
66272;SDS011;58450;52.150;4.466;2023-07-22T05:47:25;17.35;;;8.88;;
66272;SDS011;58450;52.150;4.466;2023-07-22T05:49:52;17.30;;;8.35;;
66272;SDS011;58450;52.150;4.466;2023-07-22T05:52:20;14.20;;;8.35;;
66272;SDS011;58450;52.150;4.466;2023-07-22T05:54:47;15.40;;;8.05;;
66272;SDS011;58450;52.150;4.466;2023-07-22T05:57:15;17.33;;;9.65;;
66272;SDS011;58450;52.150;4.466;2023-07-22T05:59:44;17.67;;;10.73;;
66272;SDS011;58450;52.150;4.466;2023-07-22T06:02:13;16.85;;;9.18;;
66272;SDS011;58450;52.150;4.466;2023-07-22T06:04:41;17.95;;;10.73;;
66272;SDS011;58450;52.150;4.466;2023-07-22T06:07:09;19.30;;;10.30;;
66272;SDS011;58450;52.150;4.466;2023-07-22T06:09:37;21.48;;;10.75;;
66272;SDS011;58450;52.150;4.466;2023-07-22T06:12:04;20.60;;;10.82;;
66272;SDS011;58450;52.150;4.466;2023-07-22T06:14:33;17.23;;;10.30;;
66272;SDS011;58450;52.150;4.466;2023-07-22T06:17:02;19.30;;;9.98;;
66272;SDS011;58450;52.150;4.466;2023-07-22T06:19:30;19.65;;;10.85;;
66272;SDS011;58450;52.150;4.466;2023-07-22T06:21:57;20.95;;;11.20;;
66272;SDS011;58450;52.150;4.466;2023-07-22T06:24:25;21.88;;;11.07;;
66272;SDS011;58450;52.150;4.466;2023-07-22T06:26:52;18.77;;;10.82;;
66272;SDS011;58450;52.150;4.466;2023-07-22T06:29:20;20.70;;;10.90;;
66272;SDS011;58450;52.150;4.466;2023-07-22T06:31:47;18.27;;;9.95;;
66272;SDS011;58450;52.150;4.466;2023-07-22T06:34:16;20.33;;;10.98;;
66272;SDS011;58450;52.150;4.466;2023-07-22T06:36:44;19.50;;;11.38;;
66272;SDS011;58450;52.150;4.466;2023-07-22T06:39:11;22.13;;;11.70;;
66272;SDS011;58450;52.150;4.466;2023-07-22T06:41:39;22.42;;;10.85;;
66272;SDS011;58450;52.150;4.466;2023-07-22T06:44:06;18.02;;;10.18;;
66272;SDS011;58450;52.150;4.466;2023-07-22T06:46:34;17.35;;;9.73;;
66272;SDS011;58450;52.150;4.466;2023-07-22T06:49:01;17.67;;;9.85;;
66272;SDS011;58450;52.150;4.466;2023-07-22T06:51:30;18.58;;;10.27;;
66272;SDS011;58450;52.150;4.466;2023-07-22T06:53:58;18.48;;;10.27;;
66272;SDS011;58450;52.150;4.466;2023-07-22T06:56:26;17.38;;;10.02;;
66272;SDS011;58450;52.150;4.466;2023-07-22T06:58:54;19.02;;;10.02;;
66272;SDS011;58450;52.150;4.466;2023-07-22T07:01:22;16.08;;;8.77;;
66272;SDS011;58450;52.150;4.466;2023-07-22T07:03:50;15.65;;;9.65;;
66272;SDS011;58450;52.150;4.466;2023-07-22T07:06:17;15.85;;;9.07;;
66272;SDS011;58450;52.150;4.466;2023-07-22T07:08:46;20.27;;;9.80;;
66272;SDS011;58450;52.150;4.466;2023-07-22T07:11:14;19.50;;;10.85;;
66272;SDS011;58450;52.150;4.466;2023-07-22T07:13:42;19.92;;;10.18;;
66272;SDS011;58450;52.150;4.466;2023-07-22T07:16:19;19.25;;;9.68;;
66272;SDS011;58450;52.150;4.466;2023-07-22T07:18:48;17.73;;;9.65;;
66272;SDS011;58450;52.150;4.466;2023-07-22T07:21:16;16.63;;;9.20;;
66272;SDS011;58450;52.150;4.466;2023-07-22T07:23:44;18.17;;;9.15;;
66272;SDS011;58450;52.150;4.466;2023-07-22T07:26:13;16.90;;;8.43;;
66272;SDS011;58450;52.150;4.466;2023-07-22T07:28:41;15.20;;;8.15;;
66272;SDS011;58450;52.150;4.466;2023-07-22T07:31:08;16.90;;;9.27;;
66272;SDS011;58450;52.150;4.466;2023-07-22T07:33:36;14.88;;;8.40;;
66272;SDS011;58450;52.150;4.466;2023-07-22T07:36:04;15.80;;;8.30;;
66272;SDS011;58450;52.150;4.466;2023-07-22T07:38:32;15.48;;;8.00;;
66272;SDS011;58450;52.150;4.466;2023-07-22T07:41:01;13.75;;;7.80;;
66272;SDS011;58450;52.150;4.466;2023-07-22T07:43:31;16.85;;;8.38;;
66272;SDS011;58450;52.150;4.466;2023-07-22T07:46:15;13.82;;;7.68;;
66272;SDS011;58450;52.150;4.466;2023-07-22T07:48:44;12.73;;;6.70;;
66272;SDS011;58450;52.150;4.466;2023-07-22T07:51:13;11.13;;;6.50;;
66272;SDS011;58450;52.150;4.466;2023-07-22T07:53:43;11.45;;;6.13;;
66272;SDS011;58450;52.150;4.466;2023-07-22T07:56:13;14.52;;;6.20;;
66272;SDS011;58450;52.150;4.466;2023-07-22T07:58:43;11.50;;;5.55;;
66272;SDS011;58450;52.150;4.466;2023-07-22T08:01:12;10.10;;;5.53;;
66272;SDS011;58450;52.150;4.466;2023-07-22T08:03:41;9.07;;;4.90;;
66272;SDS011;58450;52.150;4.466;2023-07-22T08:06:09;11.85;;;5.22;;
66272;SDS011;58450;52.150;4.466;2023-07-22T08:08:38;9.27;;;4.20;;
66272;SDS011;58450;52.150;4.466;2023-07-22T08:11:07;9.48;;;3.90;;
66272;SDS011;58450;52.150;4.466;2023-07-22T08:13:36;7.93;;;4.35;;
66272;SDS011;58450;52.150;4.466;2023-07-22T08:16:06;8.85;;;4.13;;
66272;SDS011;58450;52.150;4.466;2023-07-22T08:18:36;11.23;;;5.22;;
66272;SDS011;58450;52.150;4.466;2023-07-22T08:21:05;11.57;;;5.47;;
66272;SDS011;58450;52.150;4.466;2023-07-22T08:23:34;10.82;;;4.28;;
66272;SDS011;58450;52.150;4.466;2023-07-22T08:26:03;9.10;;;4.18;;
66272;SDS011;58450;52.150;4.466;2023-07-22T08:28:32;10.18;;;4.90;;
66272;SDS011;58450;52.150;4.466;2023-07-22T08:31:00;10.55;;;4.18;;
66272;SDS011;58450;52.150;4.466;2023-07-22T08:33:30;10.30;;;4.55;;
66272;SDS011;58450;52.150;4.466;2023-07-22T08:35:58;8.90;;;3.72;;
66272;SDS011;58450;52.150;4.466;2023-07-22T08:38:26;8.27;;;4.22;;
66272;SDS011;58450;52.150;4.466;2023-07-22T08:40:53;9.23;;;4.40;;
66272;SDS011;58450;52.150;4.466;2023-07-22T08:43:21;9.25;;;4.60;;
66272;SDS011;58450;52.150;4.466;2023-07-22T08:45:51;10.80;;;5.10;;
66272;SDS011;58450;52.150;4.466;2023-07-22T08:48:21;9.52;;;4.70;;
66272;SDS011;58450;52.150;4.466;2023-07-22T08:53:29;10.70;;;5.18;;
66272;SDS011;58450;52.150;4.466;2023-07-22T08:55:58;10.13;;;5.25;;
66272;SDS011;58450;52.150;4.466;2023-07-22T08:58:27;9.25;;;4.63;;
66272;SDS011;58450;52.150;4.466;2023-07-22T09:00:56;8.20;;;4.20;;
66272;SDS011;58450;52.150;4.466;2023-07-22T09:03:26;8.25;;;4.03;;
66272;SDS011;58450;52.150;4.466;2023-07-22T09:05:55;11.77;;;5.05;;
66272;SDS011;58450;52.150;4.466;2023-07-22T09:08:24;8.50;;;4.20;;
66272;SDS011;58450;52.150;4.466;2023-07-22T09:10:51;8.45;;;3.90;;
66272;SDS011;58450;52.150;4.466;2023-07-22T09:13:20;8.68;;;3.80;;
66272;SDS011;58450;52.150;4.466;2023-07-22T09:15:50;8.43;;;3.92;;
66272;SDS011;58450;52.150;4.466;2023-07-22T09:18:19;7.40;;;3.92;;
66272;SDS011;58450;52.150;4.466;2023-07-22T09:20:46;5.63;;;3.30;;
66272;SDS011;58450;52.150;4.466;2023-07-22T09:23:15;7.70;;;3.30;;
66272;SDS011;58450;52.150;4.466;2023-07-22T09:25:43;7.88;;;2.83;;
66272;SDS011;58450;52.150;4.466;2023-07-22T09:28:10;5.75;;;2.30;;
66272;SDS011;58450;52.150;4.466;2023-07-22T09:30:38;5.57;;;2.35;;
66272;SDS011;58450;52.150;4.466;2023-07-22T09:33:07;4.38;;;1.83;;
66272;SDS011;58450;52.150;4.466;2023-07-22T09:35:48;4.53;;;2.00;;
66272;SDS011;58450;52.150;4.466;2023-07-22T09:38:23;4.53;;;1.67;;
66272;SDS011;58450;52.150;4.466;2023-07-22T09:40:52;4.38;;;2.00;;
66272;SDS011;58450;52.150;4.466;2023-07-22T09:43:21;4.00;;;1.85;;
66272;SDS011;58450;52.150;4.466;2023-07-22T09:45:50;3.33;;;1.80;;
66272;SDS011;58450;52.150;4.466;2023-07-22T09:48:20;5.50;;;2.20;;
66272;SDS011;58450;52.150;4.466;2023-07-22T09:50:55;7.85;;;1.90;;
66272;SDS011;58450;52.150;4.466;2023-07-22T09:53:25;4.10;;;1.85;;
66272;SDS011;58450;52.150;4.466;2023-07-22T09:55:53;5.18;;;2.38;;
66272;SDS011;58450;52.150;4.466;2023-07-22T09:58:20;6.07;;;2.50;;
66272;SDS011;58450;52.150;4.466;2023-07-22T10:00:57;6.47;;;2.50;;
66272;SDS011;58450;52.150;4.466;2023-07-22T10:03:26;4.25;;;2.17;;
66272;SDS011;58450;52.150;4.466;2023-07-22T10:05:56;3.20;;;2.13;;
66272;SDS011;58450;52.150;4.466;2023-07-22T10:08:28;4.72;;;2.25;;
66272;SDS011;58450;52.150;4.466;2023-07-22T10:11:03;5.63;;;2.35;;
66272;SDS011;58450;52.150;4.466;2023-07-22T10:13:36;6.53;;;2.25;;
66272;SDS011;58450;52.150;4.466;2023-07-22T10:16:04;4.88;;;2.47;;
66272;SDS011;58450;52.150;4.466;2023-07-22T10:18:33;5.85;;;2.30;;
66272;SDS011;58450;52.150;4.466;2023-07-22T10:21:03;4.72;;;2.55;;
66272;SDS011;58450;52.150;4.466;2023-07-22T10:23:32;4.13;;;2.17;;
66272;SDS011;58450;52.150;4.466;2023-07-22T10:26:02;6.97;;;2.35;;
66272;SDS011;58450;52.150;4.466;2023-07-22T10:28:30;4.97;;;2.05;;
66272;SDS011;58450;52.150;4.466;2023-07-22T10:30:59;7.43;;;2.30;;
66272;SDS011;58450;52.150;4.466;2023-07-22T10:33:28;7.20;;;2.30;;
66272;SDS011;58450;52.150;4.466;2023-07-22T10:36:03;5.60;;;1.95;;
66272;SDS011;58450;52.150;4.466;2023-07-22T10:38:34;4.47;;;2.00;;
66272;SDS011;58450;52.150;4.466;2023-07-22T10:41:11;7.05;;;2.15;;
66272;SDS011;58450;52.150;4.466;2023-07-22T10:43:42;7.97;;;2.28;;
66272;SDS011;58450;52.150;4.466;2023-07-22T10:46:30;4.53;;;1.77;;
66272;SDS011;58450;52.150;4.466;2023-07-22T10:49:06;3.67;;;1.98;;
66272;SDS011;58450;52.150;4.466;2023-07-22T10:51:38;3.65;;;1.80;;
66272;SDS011;58450;52.150;4.466;2023-07-22T10:54:14;4.07;;;1.77;;
66272;SDS011;58450;52.150;4.466;2023-07-22T10:56:57;6.10;;;2.10;;
66272;SDS011;58450;52.150;4.466;2023-07-22T10:59:32;3.95;;;1.85;;
66272;SDS011;58450;52.150;4.466;2023-07-22T11:02:01;5.50;;;1.73;;
66272;SDS011;58450;52.150;4.466;2023-07-22T11:04:49;3.83;;;1.60;;
66272;SDS011;58450;52.150;4.466;2023-07-22T11:07:29;4.75;;;1.42;;
66272;SDS011;58450;52.150;4.466;2023-07-22T11:09:59;2.92;;;1.33;;
66272;SDS011;58450;52.150;4.466;2023-07-22T11:12:43;3.08;;;1.20;;
66272;SDS011;58450;52.150;4.466;2023-07-22T11:15:11;2.88;;;1.20;;
66272;SDS011;58450;52.150;4.466;2023-07-22T11:17:43;5.90;;;1.40;;
66272;SDS011;58450;52.150;4.466;2023-07-22T11:20:10;4.65;;;1.25;;
66272;SDS011;58450;52.150;4.466;2023-07-22T11:22:38;2.88;;;1.30;;
66272;SDS011;58450;52.150;4.466;2023-07-22T11:25:08;3.55;;;1.33;;
66272;SDS011;58450;52.150;4.466;2023-07-22T11:27:36;4.95;;;1.45;;
66272;SDS011;58450;52.150;4.466;2023-07-22T11:30:04;6.05;;;1.45;;
66272;SDS011;58450;52.150;4.466;2023-07-22T11:32:33;4.93;;;1.50;;
66272;SDS011;58450;52.150;4.466;2023-07-22T11:35:01;5.07;;;1.45;;
66272;SDS011;58450;52.150;4.466;2023-07-22T11:37:28;3.08;;;1.10;;
66272;SDS011;58450;52.150;4.466;2023-07-22T11:39:59;3.35;;;1.30;;
66272;SDS011;58450;52.150;4.466;2023-07-22T11:42:28;4.28;;;1.10;;
66272;SDS011;58450;52.150;4.466;2023-07-22T11:44:56;4.53;;;1.13;;
66272;SDS011;58450;52.150;4.466;2023-07-22T11:47:28;3.28;;;1.15;;
66272;SDS011;58450;52.150;4.466;2023-07-22T11:49:56;4.53;;;1.88;;
66272;SDS011;58450;52.150;4.466;2023-07-22T11:52:25;3.25;;;1.20;;
66272;SDS011;58450;52.150;4.466;2023-07-22T11:54:53;2.72;;;1.27;;
66272;SDS011;58450;52.150;4.466;2023-07-22T11:57:27;4.93;;;1.40;;
66272;SDS011;58450;52.150;4.466;2023-07-22T11:59:55;3.78;;;1.50;;
66272;SDS011;58450;52.150;4.466;2023-07-22T12:02:24;3.67;;;1.48;;
66272;SDS011;58450;52.150;4.466;2023-07-22T12:05:00;3.10;;;1.33;;
66272;SDS011;58450;52.150;4.466;2023-07-22T12:07:31;3.78;;;1.27;;
66272;SDS011;58450;52.150;4.466;2023-07-22T12:10:00;3.33;;;1.40;;
66272;SDS011;58450;52.150;4.466;2023-07-22T12:12:33;4.82;;;1.40;;
66272;SDS011;58450;52.150;4.466;2023-07-22T12:15:02;3.33;;;1.48;;
66272;SDS011;58450;52.150;4.466;2023-07-22T12:17:48;4.28;;;1.58;;
66272;SDS011;58450;52.150;4.466;2023-07-22T12:20:23;3.22;;;1.38;;
66272;SDS011;58450;52.150;4.466;2023-07-22T12:22:52;3.97;;;1.60;;
66272;SDS011;58450;52.150;4.466;2023-07-22T12:25:20;3.17;;;1.50;;
66272;SDS011;58450;52.150;4.466;2023-07-22T12:27:50;3.80;;;1.35;;
66272;SDS011;58450;52.150;4.466;2023-07-22T12:30:17;3.55;;;1.60;;
66272;SDS011;58450;52.150;4.466;2023-07-22T12:32:45;5.68;;;1.90;;
66272;SDS011;58450;52.150;4.466;2023-07-22T12:35:13;7.60;;;1.80;;
66272;SDS011;58450;52.150;4.466;2023-07-22T12:37:41;5.72;;;1.60;;
66272;SDS011;58450;52.150;4.466;2023-07-22T12:40:09;3.22;;;1.40;;
66272;SDS011;58450;52.150;4.466;2023-07-22T12:42:38;3.22;;;1.40;;
66272;SDS011;58450;52.150;4.466;2023-07-22T12:45:08;4.05;;;1.40;;
66272;SDS011;58450;52.150;4.466;2023-07-22T12:47:36;3.65;;;1.48;;
66272;SDS011;58450;52.150;4.466;2023-07-22T12:50:04;3.45;;;1.60;;
66272;SDS011;58450;52.150;4.466;2023-07-22T12:52:34;4.65;;;1.45;;
66272;SDS011;58450;52.150;4.466;2023-07-22T12:55:02;3.42;;;1.40;;
66272;SDS011;58450;52.150;4.466;2023-07-22T12:57:30;2.95;;;1.40;;
66272;SDS011;58450;52.150;4.466;2023-07-22T12:59:57;3.03;;;1.52;;
66272;SDS011;58450;52.150;4.466;2023-07-22T13:02:26;4.15;;;1.70;;
66272;SDS011;58450;52.150;4.466;2023-07-22T13:04:54;5.32;;;1.70;;
66272;SDS011;58450;52.150;4.466;2023-07-22T13:07:21;4.30;;;1.42;;
66272;SDS011;58450;52.150;4.466;2023-07-22T13:09:49;5.70;;;1.48;;
66272;SDS011;58450;52.150;4.466;2023-07-22T13:12:19;4.68;;;1.38;;
66272;SDS011;58450;52.150;4.466;2023-07-22T13:14:46;4.72;;;1.48;;
66272;SDS011;58450;52.150;4.466;2023-07-22T13:17:14;4.80;;;1.30;;
66272;SDS011;58450;52.150;4.466;2023-07-22T13:19:43;4.97;;;1.60;;
66272;SDS011;58450;52.150;4.466;2023-07-22T13:22:10;4.05;;;1.60;;
66272;SDS011;58450;52.150;4.466;2023-07-22T13:24:38;3.40;;;1.40;;
66272;SDS011;58450;52.150;4.466;2023-07-22T13:27:06;2.70;;;1.40;;
66272;SDS011;58450;52.150;4.466;2023-07-22T13:29:34;3.95;;;1.40;;
66272;SDS011;58450;52.150;4.466;2023-07-22T13:32:01;3.53;;;1.40;;
66272;SDS011;58450;52.150;4.466;2023-07-22T13:34:30;4.07;;;1.40;;
66272;SDS011;58450;52.150;4.466;2023-07-22T13:36:58;4.57;;;1.33;;
66272;SDS011;58450;52.150;4.466;2023-07-22T13:39:28;4.00;;;1.63;;
66272;SDS011;58450;52.150;4.466;2023-07-22T13:41:56;4.03;;;1.38;;
66272;SDS011;58450;52.150;4.466;2023-07-22T13:44:23;4.75;;;1.70;;
66272;SDS011;58450;52.150;4.466;2023-07-22T13:46:51;3.63;;;1.52;;
66272;SDS011;58450;52.150;4.466;2023-07-22T13:49:19;3.05;;;1.30;;
66272;SDS011;58450;52.150;4.466;2023-07-22T13:51:46;3.97;;;1.30;;
66272;SDS011;58450;52.150;4.466;2023-07-22T13:54:15;2.85;;;1.52;;
66272;SDS011;58450;52.150;4.466;2023-07-22T13:56:43;3.72;;;1.50;;
66272;SDS011;58450;52.150;4.466;2023-07-22T13:59:12;5.10;;;1.70;;
66272;SDS011;58450;52.150;4.466;2023-07-22T14:01:40;8.85;;;2.15;;
66272;SDS011;58450;52.150;4.466;2023-07-22T14:04:07;4.78;;;1.73;;
66272;SDS011;58450;52.150;4.466;2023-07-22T14:06:35;6.00;;;1.77;;
66272;SDS011;58450;52.150;4.466;2023-07-22T14:09:02;4.25;;;1.88;;
66272;SDS011;58450;52.150;4.466;2023-07-22T14:11:31;5.20;;;1.75;;
66272;SDS011;58450;52.150;4.466;2023-07-22T14:13:59;4.93;;;1.70;;
66272;SDS011;58450;52.150;4.466;2023-07-22T14:16:26;4.07;;;1.77;;
66272;SDS011;58450;52.150;4.466;2023-07-22T14:18:54;5.03;;;1.80;;
66272;SDS011;58450;52.150;4.466;2023-07-22T14:21:21;3.88;;;2.00;;
66272;SDS011;58450;52.150;4.466;2023-07-22T14:23:49;6.18;;;1.77;;
66272;SDS011;58450;52.150;4.466;2023-07-22T14:26:16;4.28;;;2.00;;
66272;SDS011;58450;52.150;4.466;2023-07-22T14:28:45;4.40;;;1.70;;
66272;SDS011;58450;52.150;4.466;2023-07-22T14:31:13;5.30;;;1.95;;
66272;SDS011;58450;52.150;4.466;2023-07-22T14:33:40;4.95;;;1.83;;
66272;SDS011;58450;52.150;4.466;2023-07-22T14:36:08;4.65;;;1.60;;
66272;SDS011;58450;52.150;4.466;2023-07-22T14:38:36;6.90;;;2.10;;
66272;SDS011;58450;52.150;4.466;2023-07-22T14:41:03;6.03;;;1.92;;
66272;SDS011;58450;52.150;4.466;2023-07-22T14:43:31;6.55;;;1.67;;
66272;SDS011;58450;52.150;4.466;2023-07-22T14:46:00;5.10;;;1.88;;
66272;SDS011;58450;52.150;4.466;2023-07-22T14:48:27;4.25;;;1.60;;
66272;SDS011;58450;52.150;4.466;2023-07-22T14:50:55;4.18;;;1.70;;
66272;SDS011;58450;52.150;4.466;2023-07-22T14:53:22;6.85;;;1.65;;
66272;SDS011;58450;52.150;4.466;2023-07-22T14:55:50;5.38;;;1.77;;
66272;SDS011;58450;52.150;4.466;2023-07-22T14:58:17;4.63;;;1.30;;